createdAt,value
2018-10-21T00:00:25.778Z,956.73
2018-10-21T00:01:25.688Z,956.72
2018-10-21T00:02:25.677Z,956.74
2018-10-21T00:03:25.480Z,956.77
2018-10-21T00:04:25.380Z,956.75
2018-10-21T00:05:25.287Z,956.74
2018-10-21T00:06:25.202Z,956.76
2018-10-21T00:07:25.092Z,956.74
2018-10-21T00:08:24.995Z,956.75
2018-10-21T00:09:24.897Z,956.77
2018-10-21T00:10:24.801Z,956.77
2018-10-21T00:11:24.718Z,956.77
2018-10-21T00:12:24.601Z,956.78
2018-10-21T00:13:24.504Z,956.80
2018-10-21T00:14:24.409Z,956.73
2018-10-21T00:15:24.397Z,956.76
2018-10-21T00:16:24.230Z,956.79
2018-10-21T00:17:24.115Z,956.82
2018-10-21T00:18:24.022Z,956.83
2018-10-21T00:19:23.923Z,956.82
2018-10-21T00:20:23.825Z,956.80
2018-10-21T00:21:23.751Z,956.83
2018-10-21T00:22:23.629Z,956.83
2018-10-21T00:23:23.537Z,956.80
2018-10-21T00:24:23.535Z,956.78
2018-10-21T00:25:23.337Z,956.78
2018-10-21T00:26:23.255Z,956.76
2018-10-21T00:27:23.145Z,956.79
2018-10-21T00:28:23.043Z,956.81
2018-10-21T00:29:22.954Z,956.80
2018-10-21T00:30:22.854Z,956.75
2018-10-21T00:31:22.766Z,956.75
2018-10-21T00:32:22.654Z,956.73
2018-10-21T00:33:22.558Z,956.77
2018-10-21T00:34:22.459Z,956.71
2018-10-21T00:35:22.361Z,956.72
2018-10-21T00:36:22.281Z,956.70
2018-10-21T00:37:22.171Z,956.67
2018-10-21T00:38:22.180Z,956.66
2018-10-21T00:39:21.972Z,956.70
2018-10-21T00:40:21.882Z,956.70
2018-10-21T00:41:21.793Z,956.69
2018-10-21T00:42:21.680Z,956.67
2018-10-21T00:43:21.581Z,956.71
2018-10-21T00:44:21.489Z,956.67
2018-10-21T00:45:21.505Z,956.68
2018-10-21T00:46:21.311Z,956.67
2018-10-21T00:47:21.194Z,956.69
2018-10-21T00:48:21.096Z,956.70
2018-10-21T00:49:21.001Z,956.68
2018-10-21T00:50:20.904Z,956.64
2018-10-21T00:51:20.825Z,956.67
2018-10-21T00:52:20.810Z,956.69
2018-10-21T00:53:20.610Z,956.69
2018-10-21T00:54:20.513Z,956.70
2018-10-21T00:55:20.418Z,956.69
2018-10-21T00:56:20.337Z,956.67
2018-10-21T00:57:20.224Z,956.67
2018-10-21T00:58:20.125Z,956.65
2018-10-21T00:59:20.127Z,956.70
2018-10-21T01:00:19.932Z,956.65
2018-10-21T01:01:19.852Z,956.64
2018-10-21T01:02:19.736Z,956.61
2018-10-21T01:03:19.636Z,956.58
2018-10-21T01:04:19.540Z,956.58
2018-10-21T01:05:19.444Z,956.59
2018-10-21T01:06:19.467Z,956.62
2018-10-21T01:07:19.250Z,956.61
2018-10-21T01:08:19.153Z,956.61
2018-10-21T01:09:19.111Z,956.63
2018-10-21T01:10:18.960Z,956.60
2018-10-21T01:11:18.878Z,956.62
2018-10-21T01:12:18.764Z,956.60
2018-10-21T01:13:18.783Z,956.62
2018-10-21T01:14:18.569Z,956.62
2018-10-21T01:15:18.666Z,956.60
2018-10-21T01:16:18.389Z,956.65
2018-10-21T01:17:18.278Z,956.66
2018-10-21T01:18:18.177Z,956.62
2018-10-21T01:19:18.081Z,956.62
2018-10-21T01:20:18.086Z,956.58
2018-10-21T01:21:17.983Z,956.62
2018-10-21T01:22:17.793Z,956.55
2018-10-21T01:23:17.714Z,956.57
2018-10-21T01:24:17.596Z,956.57
2018-10-21T01:25:17.499Z,956.56
2018-10-21T01:26:17.417Z,956.60
2018-10-21T01:27:17.498Z,956.60
2018-10-21T01:28:17.207Z,956.56
2018-10-21T01:29:17.113Z,956.56
2018-10-21T01:30:17.014Z,956.54
2018-10-21T01:31:16.934Z,956.54
2018-10-21T01:32:16.817Z,956.58
2018-10-21T01:33:16.814Z,956.52
2018-10-21T01:34:16.725Z,956.52
2018-10-21T01:35:16.528Z,956.53
2018-10-21T01:36:16.498Z,956.53
2018-10-21T01:37:16.442Z,956.49
2018-10-21T01:38:16.283Z,956.49
2018-10-21T01:39:16.178Z,956.53
2018-10-21T01:40:16.045Z,956.55
2018-10-21T01:41:15.949Z,956.54
2018-10-21T01:42:15.863Z,956.54
2018-10-21T01:43:15.751Z,956.51
2018-10-21T01:44:15.656Z,956.53
2018-10-21T01:45:15.643Z,956.50
2018-10-21T01:46:15.460Z,956.51
2018-10-21T01:47:15.383Z,956.51
2018-10-21T01:48:15.266Z,956.49
2018-10-21T01:49:15.169Z,956.53
2018-10-21T01:50:15.072Z,956.56
2018-10-21T01:51:15.042Z,956.56
2018-10-21T01:52:14.896Z,956.57
2018-10-21T01:53:14.794Z,956.56
2018-10-21T01:54:14.818Z,956.61
2018-10-21T01:55:14.584Z,956.55
2018-10-21T01:56:14.496Z,956.55
2018-10-21T01:57:14.480Z,956.55
2018-10-21T01:58:14.296Z,956.55
2018-10-21T01:59:14.198Z,956.54
2018-10-21T02:00:14.105Z,956.57
2018-10-21T02:01:14.001Z,956.58
2018-10-21T02:02:13.923Z,956.55
2018-10-21T02:03:13.861Z,956.57
2018-10-21T02:04:13.713Z,956.59
2018-10-21T02:05:13.615Z,956.62
2018-10-21T02:06:13.517Z,956.62
2018-10-21T02:07:13.439Z,956.63
2018-10-21T02:08:13.321Z,956.62
2018-10-21T02:09:13.279Z,956.64
2018-10-21T02:10:13.706Z,956.65
2018-10-21T02:11:13.035Z,956.66
2018-10-21T02:12:12.960Z,956.68
2018-10-21T02:13:12.839Z,956.65
2018-10-21T02:14:12.803Z,956.66
2018-10-21T02:15:12.720Z,956.61
2018-10-21T02:16:12.547Z,956.64
2018-10-21T02:17:12.462Z,956.63
2018-10-21T02:18:12.349Z,956.61
2018-10-21T02:19:12.255Z,956.63
2018-10-21T02:20:12.158Z,956.60
2018-10-21T02:21:12.136Z,956.62
2018-10-21T02:22:11.980Z,956.59
2018-10-21T02:23:11.865Z,956.59
2018-10-21T02:24:11.768Z,956.64
2018-10-21T02:25:11.672Z,956.62
2018-10-21T02:26:11.583Z,956.61
2018-10-21T02:27:11.537Z,956.62
2018-10-21T02:28:11.377Z,956.58
2018-10-21T02:29:11.280Z,956.61
2018-10-21T02:30:11.183Z,956.61
2018-10-21T02:31:11.086Z,956.54
2018-10-21T02:32:11.004Z,956.56
2018-10-21T02:33:10.923Z,956.54
2018-10-21T02:34:10.798Z,956.52
2018-10-21T02:35:10.700Z,956.48
2018-10-21T02:36:10.598Z,956.51
2018-10-21T02:37:10.518Z,956.49
2018-10-21T02:38:10.406Z,956.52
2018-10-21T02:39:10.342Z,956.48
2018-10-21T02:40:10.212Z,956.49
2018-10-21T02:41:10.112Z,956.49
2018-10-21T02:42:10.038Z,956.50
2018-10-21T02:43:09.919Z,956.49
2018-10-21T02:44:09.821Z,956.51
2018-10-21T02:45:09.783Z,956.53
2018-10-21T02:46:09.628Z,956.50
2018-10-21T02:47:09.548Z,956.49
2018-10-21T02:48:09.431Z,956.48
2018-10-21T02:49:09.338Z,956.51
2018-10-21T02:50:09.236Z,956.51
2018-10-21T02:51:09.203Z,956.52
2018-10-21T02:52:09.058Z,956.49
2018-10-21T02:53:08.951Z,956.45
2018-10-21T02:54:08.852Z,956.43
2018-10-21T02:55:08.751Z,956.42
2018-10-21T02:56:08.661Z,956.41
2018-10-21T02:57:08.646Z,956.43
2018-10-21T02:58:08.459Z,956.38
2018-10-21T02:59:08.366Z,956.40
2018-10-21T03:00:08.268Z,956.41
2018-10-21T03:01:08.167Z,956.40
2018-10-21T03:02:08.085Z,956.35
2018-10-21T03:03:08.038Z,956.40
2018-10-21T03:04:07.879Z,956.38
2018-10-21T03:05:07.780Z,956.38
2018-10-21T03:06:07.684Z,956.38
2018-10-21T03:07:07.599Z,956.38
2018-10-21T03:08:07.489Z,956.41
2018-10-21T03:09:07.453Z,956.37
2018-10-21T03:10:07.290Z,956.42
2018-10-21T03:11:07.312Z,956.38
2018-10-21T03:12:07.120Z,956.38
2018-10-21T03:13:07.000Z,956.40
2018-10-21T03:14:06.903Z,956.37
2018-10-21T03:15:06.806Z,956.37
2018-10-21T03:16:06.705Z,956.32
2018-10-21T03:17:06.631Z,956.37
2018-10-21T03:18:06.654Z,956.38
2018-10-21T03:19:06.420Z,956.40
2018-10-21T03:20:06.319Z,956.42
2018-10-21T03:21:06.223Z,956.38
2018-10-21T03:22:06.134Z,956.41
2018-10-21T03:23:06.042Z,956.38
2018-10-21T03:24:05.925Z,956.36
2018-10-21T03:25:05.936Z,956.35
2018-10-21T03:26:05.746Z,956.36
2018-10-21T03:27:05.661Z,956.34
2018-10-21T03:28:05.543Z,956.27
2018-10-21T03:29:05.441Z,956.31
2018-10-21T03:30:05.353Z,956.32
2018-10-21T03:31:05.245Z,956.33
2018-10-21T03:32:05.151Z,956.27
2018-10-21T03:33:05.237Z,956.28
2018-10-21T03:34:05.075Z,956.26
2018-10-21T03:35:04.852Z,956.25
2018-10-21T03:36:04.768Z,956.24
2018-10-21T03:37:04.662Z,956.28
2018-10-21T03:38:04.575Z,956.27
2018-10-21T03:39:04.503Z,956.26
2018-10-21T03:40:04.656Z,956.25
2018-10-21T03:41:04.270Z,956.33
2018-10-21T03:42:04.175Z,956.31
2018-10-21T03:43:04.086Z,956.28
2018-10-21T03:44:03.976Z,956.28
2018-10-21T03:45:03.880Z,956.32
2018-10-21T03:46:03.813Z,956.31
2018-10-21T03:47:03.781Z,956.33
2018-10-21T03:48:03.599Z,956.28
2018-10-21T03:49:03.486Z,956.29
2018-10-21T03:50:03.392Z,956.29
2018-10-21T03:51:03.291Z,956.32
2018-10-21T03:52:03.222Z,956.29
2018-10-21T03:53:03.111Z,956.28
2018-10-21T03:54:03.101Z,956.27
2018-10-21T03:55:02.899Z,956.23
2018-10-21T03:56:02.800Z,956.25
2018-10-21T03:57:02.708Z,956.25
2018-10-21T03:58:02.671Z,956.24
2018-10-21T03:59:02.509Z,956.24
2018-10-21T04:00:02.411Z,956.29
2018-10-21T04:01:02.441Z,956.30
2018-10-21T04:02:02.217Z,956.34
2018-10-21T04:03:02.135Z,956.35
2018-10-21T04:04:02.035Z,956.35
2018-10-21T04:05:01.928Z,956.30
2018-10-21T04:06:01.823Z,956.30
2018-10-21T04:07:01.729Z,956.30
2018-10-21T04:08:01.747Z,956.35
2018-10-21T04:09:01.531Z,956.36
2018-10-21T04:10:01.470Z,956.35
2018-10-21T04:11:01.338Z,956.32
2018-10-21T04:12:01.242Z,956.34
2018-10-21T04:13:01.164Z,956.32
2018-10-21T04:14:01.044Z,956.29
2018-10-21T04:15:01.050Z,956.28
2018-10-21T04:16:00.888Z,956.28
2018-10-21T04:17:00.755Z,956.30
2018-10-21T04:18:00.670Z,956.31
2018-10-21T04:19:00.571Z,956.33
2018-10-21T04:20:00.457Z,956.34
2018-10-21T04:21:00.360Z,956.33
2018-10-21T04:22:00.400Z,956.29
2018-10-21T04:23:00.182Z,956.29
2018-10-21T04:24:00.068Z,956.24
2018-10-21T04:24:59.971Z,956.27
2018-10-21T04:25:59.879Z,956.29
2018-10-21T04:26:59.775Z,956.29
2018-10-21T04:27:59.721Z,956.28
2018-10-21T04:28:59.699Z,956.25
2018-10-21T04:29:59.480Z,956.28
2018-10-21T04:30:59.385Z,956.24
2018-10-21T04:31:59.283Z,956.25
2018-10-21T04:32:59.206Z,956.21
2018-10-21T04:33:59.110Z,956.24
2018-10-21T04:34:59.116Z,956.21
2018-10-21T04:35:58.894Z,956.21
2018-10-21T04:36:58.794Z,956.20
2018-10-21T04:38:01.707Z,956.20
2018-10-21T04:38:58.604Z,956.20
2018-10-21T04:39:58.571Z,956.24
2018-10-21T04:40:58.402Z,956.24
2018-10-21T04:41:58.307Z,956.24
2018-10-21T04:42:58.227Z,956.23
2018-10-21T04:43:58.112Z,956.21
2018-10-21T04:44:58.017Z,956.26
2018-10-21T04:45:57.928Z,956.20
2018-10-21T04:46:57.924Z,956.24
2018-10-21T04:47:57.736Z,956.25
2018-10-21T04:48:57.626Z,956.25
2018-10-21T04:49:57.524Z,956.24
2018-10-21T04:50:57.425Z,956.19
2018-10-21T04:51:57.331Z,956.17
2018-10-21T04:52:57.248Z,956.16
2018-10-21T04:53:57.133Z,956.14
2018-10-21T04:54:57.035Z,956.13
2018-10-21T04:55:56.940Z,956.17
2018-10-21T04:56:56.843Z,956.15
2018-10-21T04:57:56.784Z,956.14
2018-10-21T04:58:56.647Z,956.20
2018-10-21T04:59:56.545Z,956.19
2018-10-21T05:00:56.452Z,956.23
2018-10-21T05:01:56.353Z,956.24
2018-10-21T05:02:56.267Z,956.25
2018-10-21T05:03:56.164Z,956.27
2018-10-21T05:04:56.060Z,956.28
2018-10-21T05:05:55.959Z,956.30
2018-10-21T05:06:55.862Z,956.32
2018-10-21T05:07:55.766Z,956.29
2018-10-21T05:08:55.686Z,956.34
2018-10-21T05:09:55.575Z,956.37
2018-10-21T05:10:55.470Z,956.37
2018-10-21T05:11:55.373Z,956.32
2018-10-21T05:12:55.280Z,956.28
2018-10-21T05:13:55.200Z,956.27
2018-10-21T05:14:55.084Z,956.30
2018-10-21T05:15:54.996Z,956.33
2018-10-21T05:16:54.887Z,956.31
2018-10-21T05:17:54.795Z,956.29
2018-10-21T05:18:54.711Z,956.29
2018-10-21T05:19:54.595Z,956.28
2018-10-21T05:20:54.498Z,956.27
2018-10-21T05:21:54.442Z,956.28
2018-10-21T05:22:54.304Z,956.29
2018-10-21T05:23:54.268Z,956.33
2018-10-21T05:24:54.106Z,956.30
2018-10-21T05:25:54.010Z,956.33
2018-10-21T05:26:53.908Z,956.35
2018-10-21T05:27:53.834Z,956.37
2018-10-21T05:28:53.729Z,956.38
2018-10-21T05:29:53.614Z,956.39
2018-10-21T05:30:53.519Z,956.43
2018-10-21T05:31:53.421Z,956.45
2018-10-21T05:32:53.324Z,956.41
2018-10-21T05:33:53.285Z,956.38
2018-10-21T05:34:53.122Z,956.43
2018-10-21T05:35:53.028Z,956.42
2018-10-21T05:36:52.935Z,956.42
2018-10-21T05:37:52.867Z,956.47
2018-10-21T05:38:52.752Z,956.46
2018-10-21T05:39:52.641Z,956.46
2018-10-21T05:40:52.537Z,956.50
2018-10-21T05:41:52.440Z,956.53
2018-10-21T05:42:52.347Z,956.60
2018-10-21T05:43:52.263Z,956.59
2018-10-21T05:44:52.144Z,956.56
2018-10-21T05:45:52.052Z,956.62
2018-10-21T05:46:52.092Z,956.58
2018-10-21T05:47:51.852Z,956.67
2018-10-21T05:48:51.770Z,956.66
2018-10-21T05:49:51.660Z,956.66
2018-10-21T05:50:51.558Z,956.68
2018-10-21T05:51:51.461Z,956.68
2018-10-21T05:52:51.361Z,956.72
2018-10-21T05:53:51.280Z,956.75
2018-10-21T05:54:51.164Z,956.73
2018-10-21T05:55:51.068Z,956.72
2018-10-21T05:56:50.977Z,956.72
2018-10-21T05:57:50.888Z,956.73
2018-10-21T05:58:50.891Z,956.76
2018-10-21T05:59:50.677Z,956.72
2018-10-21T06:00:50.577Z,956.71
2018-10-21T06:01:50.482Z,956.72
2018-10-21T06:02:50.413Z,956.68
2018-10-21T06:03:50.299Z,956.69
2018-10-21T06:04:50.185Z,956.70
2018-10-21T06:05:50.208Z,956.66
2018-10-21T06:06:49.993Z,956.71
2018-10-21T06:07:49.897Z,956.71
2018-10-21T06:08:49.812Z,956.71
2018-10-21T06:09:49.700Z,956.76
2018-10-21T06:10:49.599Z,956.75
2018-10-21T06:11:49.501Z,956.73
2018-10-21T06:12:49.510Z,956.75
2018-10-21T06:13:49.325Z,956.77
2018-10-21T06:14:49.210Z,956.80
2018-10-21T06:15:49.188Z,956.81
2018-10-21T06:16:49.016Z,956.83
2018-10-21T06:17:48.916Z,956.81
2018-10-21T06:18:48.835Z,956.80
2018-10-21T06:19:48.829Z,956.85
2018-10-21T06:20:48.625Z,956.81
2018-10-21T06:21:48.529Z,956.84
2018-10-21T06:22:48.428Z,956.82
2018-10-21T06:23:48.406Z,956.87
2018-10-21T06:24:48.245Z,956.92
2018-10-21T06:25:48.140Z,956.91
2018-10-21T06:26:48.142Z,956.92
2018-10-21T06:27:48.041Z,956.90
2018-10-21T06:28:47.859Z,956.93
2018-10-21T06:29:47.743Z,956.92
2018-10-21T06:30:47.645Z,956.97
2018-10-21T06:31:47.553Z,956.98
2018-10-21T06:32:47.449Z,957.01
2018-10-21T06:33:47.545Z,957.02
2018-10-21T06:34:47.261Z,956.98
2018-10-21T06:35:47.160Z,957.03
2018-10-21T06:36:47.130Z,957.03
2018-10-21T06:37:46.967Z,957.07
2018-10-21T06:38:46.884Z,957.08
2018-10-21T06:39:46.770Z,957.12
2018-10-21T06:40:46.771Z,957.10
2018-10-21T06:41:46.578Z,957.09
2018-10-21T06:42:46.482Z,957.14
2018-10-21T06:43:46.402Z,957.11
2018-10-21T06:44:46.287Z,957.12
2018-10-21T06:45:46.244Z,957.13
2018-10-21T06:46:46.089Z,957.17
2018-10-21T06:47:46.096Z,957.11
2018-10-21T06:48:45.908Z,957.12
2018-10-21T06:49:45.798Z,957.12
2018-10-21T06:50:45.698Z,957.15
2018-10-21T06:51:45.599Z,957.18
2018-10-21T06:52:45.504Z,957.20
2018-10-21T06:53:45.412Z,957.28
2018-10-21T06:54:45.415Z,957.36
2018-10-21T06:55:45.215Z,957.33
2018-10-21T06:56:45.216Z,957.37
2018-10-21T06:57:45.124Z,957.32
2018-10-21T06:58:44.925Z,957.34
2018-10-21T06:59:44.839Z,957.28
2018-10-21T07:00:44.732Z,957.23
2018-10-21T07:01:44.733Z,957.24
2018-10-21T07:02:44.531Z,957.26
2018-10-21T07:03:44.448Z,957.27
2018-10-21T07:04:44.422Z,957.25
2018-10-21T07:05:44.242Z,957.26
2018-10-21T07:06:44.145Z,957.26
2018-10-21T07:07:44.051Z,957.28
2018-10-21T07:08:43.956Z,957.30
2018-10-21T07:09:43.875Z,957.28
2018-10-21T07:10:43.761Z,957.28
2018-10-21T07:11:43.663Z,957.33
2018-10-21T07:12:43.565Z,957.36
2018-10-21T07:13:43.472Z,957.38
2018-10-21T07:14:43.387Z,957.47
2018-10-21T07:15:43.464Z,957.55
2018-10-21T07:16:43.223Z,957.75
2018-10-21T07:17:43.081Z,957.75
2018-10-21T07:18:42.985Z,957.60
2018-10-21T07:19:42.905Z,957.55
2018-10-21T07:20:42.792Z,957.59
2018-10-21T07:21:42.824Z,957.68
2018-10-21T07:22:42.598Z,957.77
2018-10-21T07:23:42.505Z,957.68
2018-10-21T07:24:42.428Z,957.58
2018-10-21T07:25:42.314Z,957.62
2018-10-21T07:26:42.219Z,957.75
2018-10-21T07:27:42.123Z,957.57
2018-10-21T07:28:42.025Z,957.52
2018-10-21T07:29:41.947Z,957.57
2018-10-21T07:30:41.833Z,957.51
2018-10-21T07:31:41.738Z,957.54
2018-10-21T07:32:41.646Z,957.51
2018-10-21T07:33:41.545Z,957.47
2018-10-21T07:34:41.469Z,957.45
2018-10-21T07:35:41.356Z,957.49
2018-10-21T07:36:41.258Z,957.44
2018-10-21T07:37:41.169Z,957.57
2018-10-21T07:38:41.065Z,957.55
2018-10-21T07:39:40.994Z,957.56
2018-10-21T07:40:40.878Z,957.50
2018-10-21T07:41:40.779Z,957.49
2018-10-21T07:42:40.686Z,957.49
2018-10-21T07:43:40.596Z,957.50
2018-10-21T07:44:40.514Z,957.52
2018-10-21T07:45:40.400Z,957.54
2018-10-21T07:46:40.304Z,957.55
2018-10-21T07:47:40.211Z,957.55
2018-10-21T07:48:40.110Z,957.50
2018-10-21T07:49:40.039Z,957.49
2018-10-21T07:50:39.917Z,957.51
2018-10-21T07:51:39.827Z,957.46
2018-10-21T07:52:39.731Z,957.50
2018-10-21T07:53:39.632Z,957.49
2018-10-21T07:54:39.555Z,957.49
2018-10-21T07:55:39.511Z,957.53
2018-10-21T07:56:39.349Z,957.46
2018-10-21T07:57:39.251Z,957.51
2018-10-21T07:58:39.155Z,957.47
2018-10-21T07:59:39.077Z,957.47
2018-10-21T08:00:38.963Z,957.49
2018-10-21T08:01:38.870Z,957.50
2018-10-21T08:02:38.775Z,957.47
2018-10-21T08:03:38.680Z,957.50
2018-10-21T08:04:38.607Z,957.49
2018-10-21T08:05:38.487Z,957.52
2018-10-21T08:06:38.396Z,957.48
2018-10-21T08:07:38.295Z,957.50
2018-10-21T08:08:38.245Z,957.53
2018-10-21T08:09:38.123Z,957.58
2018-10-21T08:10:38.005Z,957.73
2018-10-21T08:11:37.912Z,957.84
2018-10-21T08:12:37.819Z,957.84
2018-10-21T08:13:37.721Z,957.84
2018-10-21T08:14:37.699Z,957.73
2018-10-21T08:15:37.530Z,957.82
2018-10-21T08:16:37.434Z,957.80
2018-10-21T08:17:37.339Z,957.70
2018-10-21T08:18:37.245Z,957.75
2018-10-21T08:19:37.166Z,957.77
2018-10-21T08:20:37.055Z,957.74
2018-10-21T08:21:36.962Z,957.77
2018-10-21T08:22:36.864Z,957.79
2018-10-21T08:23:36.771Z,957.85
2018-10-21T08:24:36.695Z,957.84
2018-10-21T08:25:36.589Z,957.92
2018-10-21T08:26:36.490Z,957.99
2018-10-21T08:27:36.391Z,958.00
2018-10-21T08:28:36.296Z,958.18
2018-10-21T08:29:36.220Z,958.38
2018-10-21T08:30:36.220Z,958.36
2018-10-21T08:31:36.015Z,958.09
2018-10-21T08:32:35.918Z,958.03
2018-10-21T08:33:35.829Z,957.99
2018-10-21T08:34:35.751Z,958.01
2018-10-21T08:35:35.641Z,958.21
2018-10-21T08:36:35.546Z,958.09
2018-10-21T08:37:35.455Z,958.05
2018-10-21T08:38:35.367Z,958.41
2018-10-21T08:39:35.272Z,957.94
2018-10-21T08:40:35.191Z,957.94
2018-10-21T08:41:35.080Z,957.93
2018-10-21T08:42:34.994Z,957.88
2018-10-21T08:43:34.897Z,957.97
2018-10-21T08:44:34.913Z,958.00
2018-10-21T08:45:34.732Z,958.07
2018-10-21T08:46:34.724Z,958.71
2018-10-21T08:47:34.532Z,958.70
2018-10-21T08:48:34.437Z,958.66
2018-10-21T08:49:34.346Z,958.75
2018-10-21T08:50:34.266Z,958.78
2018-10-21T08:51:34.159Z,958.79
2018-10-21T08:52:34.066Z,959.00
2018-10-21T08:53:33.976Z,959.18
2018-10-21T08:54:33.882Z,959.33
2018-10-21T08:55:33.806Z,959.31
2018-10-21T08:56:33.704Z,959.19
2018-10-21T08:57:33.610Z,957.97
2018-10-21T08:58:33.517Z,958.39
2018-10-21T08:59:33.434Z,958.38
2018-10-21T09:00:33.354Z,958.26
2018-10-21T09:01:33.246Z,958.20
2018-10-21T09:02:33.162Z,958.18
2018-10-21T09:03:33.068Z,958.24
2018-10-21T09:04:32.976Z,958.23
2018-10-21T09:05:32.908Z,957.99
2018-10-21T09:06:32.799Z,957.93
2018-10-21T09:07:32.713Z,958.08
2018-10-21T09:08:32.624Z,957.89
2018-10-21T09:09:32.532Z,957.85
2018-10-21T09:10:32.614Z,957.83
2018-10-21T09:11:32.351Z,957.85
2018-10-21T09:12:32.365Z,957.89
2018-10-21T09:13:32.173Z,957.93
2018-10-21T09:14:32.087Z,958.08
2018-10-21T09:15:32.020Z,957.82
2018-10-21T09:16:31.913Z,957.80
2018-10-21T09:17:31.815Z,957.87
2018-10-21T09:18:31.735Z,958.02
2018-10-21T09:19:31.749Z,958.02
2018-10-21T09:20:31.565Z,958.08
2018-10-21T09:21:31.459Z,958.02
2018-10-21T09:22:31.370Z,958.04
2018-10-21T09:23:31.294Z,958.02
2018-10-21T09:24:31.199Z,957.97
2018-10-21T09:25:31.122Z,957.93
2018-10-21T09:26:31.016Z,957.96
2018-10-21T09:27:30.928Z,958.08
2018-10-21T09:28:30.843Z,958.06
2018-10-21T09:29:30.752Z,958.10
2018-10-21T09:30:30.681Z,958.09
2018-10-21T09:31:30.581Z,957.98
2018-10-21T09:32:30.494Z,958.02
2018-10-21T09:33:30.457Z,958.08
2018-10-21T09:34:30.318Z,957.96
2018-10-21T09:35:30.246Z,957.89
2018-10-21T09:36:30.144Z,957.86
2018-10-21T09:37:30.055Z,957.81
2018-10-21T09:38:29.967Z,957.81
2018-10-21T09:39:29.880Z,957.77
2018-10-21T09:40:29.814Z,957.75
2018-10-21T09:41:29.706Z,957.75
2018-10-21T09:42:29.617Z,957.78
2018-10-21T09:43:29.534Z,957.81
2018-10-21T09:44:29.443Z,958.01
2018-10-21T09:45:29.376Z,957.97
2018-10-21T09:46:29.270Z,957.99
2018-10-21T09:47:29.180Z,957.99
2018-10-21T09:48:29.096Z,957.97
2018-10-21T09:49:29.006Z,957.98
2018-10-21T09:50:28.929Z,957.99
2018-10-21T09:51:28.827Z,958.01
2018-10-21T09:52:28.739Z,958.04
2018-10-21T09:53:28.653Z,958.04
2018-10-21T09:54:28.561Z,958.02
2018-10-21T09:55:28.490Z,958.00
2018-10-21T09:56:28.389Z,958.12
2018-10-21T09:57:28.306Z,958.13
2018-10-21T09:58:28.252Z,958.17
2018-10-21T09:59:28.128Z,958.17
2018-10-21T10:00:28.057Z,958.08
2018-10-21T10:01:27.952Z,958.10
2018-10-21T10:02:27.866Z,957.85
2018-10-21T10:03:27.780Z,957.81
2018-10-21T10:04:27.735Z,957.82
2018-10-21T10:05:27.632Z,957.76
2018-10-21T10:06:27.519Z,957.90
2018-10-21T10:07:27.433Z,957.89
2018-10-21T10:08:27.350Z,957.94
2018-10-21T10:09:27.260Z,957.91
2018-10-21T10:10:27.194Z,957.72
2018-10-21T10:11:27.088Z,957.90
2018-10-21T10:12:27.010Z,957.61
2018-10-21T10:13:26.922Z,957.68
2018-10-21T10:14:26.831Z,957.95
2018-10-21T10:15:26.760Z,957.95
2018-10-21T10:16:26.663Z,957.92
2018-10-21T10:17:26.596Z,957.92
2018-10-21T10:18:26.484Z,957.94
2018-10-21T10:19:26.403Z,957.91
2018-10-21T10:20:26.330Z,957.72
2018-10-21T10:21:26.226Z,957.74
2018-10-21T10:22:26.143Z,957.75
2018-10-21T10:23:26.100Z,957.73
2018-10-21T10:24:25.970Z,957.74
2018-10-21T10:25:25.904Z,957.69
2018-10-21T10:26:25.796Z,958.05
2018-10-21T10:27:25.712Z,957.99
2018-10-21T10:28:25.730Z,957.77
2018-10-21T10:29:25.543Z,957.64
2018-10-21T10:30:25.506Z,957.63
2018-10-21T10:31:25.381Z,957.62
2018-10-21T10:32:25.273Z,957.60
2018-10-21T10:33:25.187Z,957.62
2018-10-21T10:34:25.100Z,957.62
2018-10-21T10:35:25.130Z,957.59
2018-10-21T10:36:24.922Z,957.59
2018-10-21T10:37:24.835Z,958.00
2018-10-21T10:38:24.753Z,958.00
2018-10-21T10:39:24.656Z,957.92
2018-10-21T10:40:24.574Z,957.95
2018-10-21T10:41:24.498Z,957.92
2018-10-21T10:42:24.495Z,957.87
2018-10-21T10:43:24.303Z,957.88
2018-10-21T10:44:24.213Z,957.89
2018-10-21T10:45:24.130Z,957.90
2018-10-21T10:46:24.057Z,957.92
2018-10-21T10:47:23.965Z,957.93
2018-10-21T10:48:23.864Z,957.80
2018-10-21T10:49:23.874Z,957.87
2018-10-21T10:50:23.688Z,957.85
2018-10-21T10:51:23.614Z,957.61
2018-10-21T10:52:23.509Z,957.80
2018-10-21T10:53:23.424Z,957.85
2018-10-21T10:54:23.336Z,957.77
2018-10-21T10:55:23.252Z,957.72
2018-10-21T10:56:23.281Z,957.65
2018-10-21T10:57:23.083Z,957.60
2018-10-21T10:58:22.994Z,957.62
2018-10-21T10:59:22.941Z,957.68
2018-10-21T11:00:22.818Z,957.63
2018-10-21T11:01:22.748Z,957.66
2018-10-21T11:02:22.647Z,957.71
2018-10-21T11:03:22.683Z,957.67
2018-10-21T11:04:22.475Z,957.70
2018-10-21T11:05:22.384Z,957.70
2018-10-21T11:06:22.375Z,957.73
2018-10-21T11:07:22.216Z,957.67
2018-10-21T11:08:22.131Z,957.67
2018-10-21T11:09:22.053Z,957.69
2018-10-21T11:10:22.061Z,957.65
2018-10-21T11:11:21.895Z,957.36
2018-10-21T11:12:21.788Z,957.40
2018-10-21T11:13:21.707Z,957.39
2018-10-21T11:14:21.618Z,957.37
2018-10-21T11:15:21.533Z,957.36
2018-10-21T11:16:21.466Z,957.35
2018-10-21T11:17:21.460Z,957.38
2018-10-21T11:18:21.273Z,957.35
2018-10-21T11:19:21.183Z,957.31
2018-10-21T11:20:21.100Z,957.51
2018-10-21T11:21:21.029Z,957.51
2018-10-21T11:22:21.028Z,957.46
2018-10-21T11:23:20.835Z,957.46
2018-10-21T11:24:20.860Z,957.47
2018-10-21T11:25:20.729Z,957.46
2018-10-21T11:26:20.591Z,957.45
2018-10-21T11:27:20.486Z,957.41
2018-10-21T11:28:20.548Z,957.37
2018-10-21T11:29:20.311Z,957.43
2018-10-21T11:30:20.227Z,957.38
2018-10-21T11:31:20.261Z,957.36
2018-10-21T11:32:20.057Z,957.41
2018-10-21T11:33:19.968Z,957.32
2018-10-21T11:34:19.878Z,957.33
2018-10-21T11:35:19.794Z,957.29
2018-10-21T11:36:19.721Z,957.27
2018-10-21T11:37:19.832Z,957.26
2018-10-21T11:38:19.529Z,957.12
2018-10-21T11:39:19.444Z,957.15
2018-10-21T11:40:19.413Z,957.23
2018-10-21T11:41:19.294Z,957.24
2018-10-21T11:42:19.189Z,957.25
2018-10-21T11:43:19.152Z,957.26
2018-10-21T11:44:19.017Z,957.22
2018-10-21T11:45:18.931Z,957.25
2018-10-21T11:46:18.903Z,957.23
2018-10-21T11:47:18.761Z,957.19
2018-10-21T11:48:18.676Z,957.15
2018-10-21T11:49:18.589Z,957.05
2018-10-21T11:50:18.501Z,957.13
2018-10-21T11:51:18.434Z,957.15
2018-10-21T11:52:18.430Z,957.15
2018-10-21T11:53:18.244Z,957.17
2018-10-21T11:54:18.161Z,957.14
2018-10-21T11:55:18.110Z,957.17
2018-10-21T11:56:18.005Z,957.18
2018-10-21T11:57:17.903Z,957.15
2018-10-21T11:58:17.936Z,957.19
2018-10-21T11:59:17.737Z,957.19
2018-10-21T12:00:17.649Z,957.17
2018-10-21T12:01:17.647Z,957.16
2018-10-21T12:02:17.479Z,957.17
2018-10-21T12:03:17.400Z,957.17
2018-10-21T12:04:17.336Z,957.16
2018-10-21T12:05:17.226Z,957.12
2018-10-21T12:06:17.156Z,957.12
2018-10-21T12:07:17.155Z,957.13
2018-10-21T12:08:16.969Z,957.13
2018-10-21T12:09:16.896Z,957.14
2018-10-21T12:10:16.807Z,957.14
2018-10-21T12:11:16.730Z,957.13
2018-10-21T12:12:16.634Z,957.12
2018-10-21T12:13:16.605Z,957.08
2018-10-21T12:14:16.462Z,957.08
2018-10-21T12:15:16.377Z,957.10
2018-10-21T12:16:16.362Z,957.06
2018-10-21T12:17:16.227Z,957.06
2018-10-21T12:18:16.123Z,957.01
2018-10-21T12:19:16.095Z,957.07
2018-10-21T12:20:15.956Z,957.09
2018-10-21T12:21:15.875Z,957.11
2018-10-21T12:22:15.914Z,957.08
2018-10-21T12:23:15.716Z,957.01
2018-10-21T12:24:15.615Z,957.01
2018-10-21T12:25:15.643Z,956.99
2018-10-21T12:26:15.450Z,957.04
2018-10-21T12:27:15.380Z,957.06